createdAt,value
2023-01-04T00:02:35.439Z,28.90
2023-01-04T00:05:40.075Z,27.45
2023-01-04T00:08:45.007Z,26.55
2023-01-04T00:11:49.947Z,27.63
2023-01-04T00:14:54.784Z,23.60
2023-01-04T00:17:59.708Z,27.15
2023-01-04T00:21:17.733Z,23.23
2023-01-04T00:24:22.670Z,23.95
2023-01-04T00:27:27.483Z,22.25
2023-01-04T00:30:32.433Z,26.85
2023-01-04T00:33:37.692Z,19.38
2023-01-04T00:36:42.507Z,21.70
2023-01-04T00:39:47.739Z,21.67
2023-01-04T00:42:52.451Z,21.88
2023-01-04T00:45:57.676Z,22.05
2023-01-04T00:49:03.423Z,21.85
2023-01-04T00:52:08.802Z,23.00
2023-01-04T00:55:13.504Z,21.08
2023-01-04T00:58:18.439Z,23.42
2023-01-04T01:01:24.179Z,22.77
2023-01-04T01:04:29.677Z,23.40
2023-01-04T01:07:34.531Z,20.90
2023-01-04T01:10:39.448Z,23.95
2023-01-04T01:13:44.367Z,20.17
2023-01-04T01:16:58.514Z,24.02
2023-01-04T01:20:05.338Z,23.67
2023-01-04T01:23:15.422Z,22.85
2023-01-04T01:26:22.355Z,26.13
2023-01-04T01:29:27.193Z,29.10
2023-01-04T01:32:31.958Z,23.65
2023-01-04T01:35:37.275Z,21.90
2023-01-04T01:38:43.012Z,23.40
2023-01-04T01:41:48.142Z,22.83
2023-01-04T01:45:06.714Z,23.02
2023-01-04T01:48:17.697Z,21.83
2023-01-04T01:51:23.238Z,22.40
2023-01-04T01:54:43.289Z,22.48
2023-01-04T01:57:50.009Z,25.38
2023-01-04T02:00:55.393Z,18.77
2023-01-04T02:04:01.531Z,24.77
2023-01-04T02:07:06.988Z,20.17
2023-01-04T02:10:12.251Z,24.17
2023-01-04T02:13:22.075Z,20.75
2023-01-04T02:16:42.687Z,19.38
2023-01-04T02:20:12.636Z,19.45
2023-01-04T02:24:05.281Z,19.42
2023-01-04T02:27:46.574Z,20.55
2023-01-04T02:31:05.927Z,18.27
2023-01-04T02:34:45.004Z,26.23
2023-01-04T02:38:16.719Z,20.83
2023-01-04T02:41:36.248Z,25.30
2023-01-04T02:44:57.432Z,25.10
2023-01-04T02:48:25.977Z,21.13
2023-01-04T02:51:34.493Z,27.48
2023-01-04T02:54:39.499Z,23.75
2023-01-04T02:57:55.843Z,27.80
2023-01-04T03:01:28.175Z,29.10
2023-01-04T03:05:33.868Z,29.52
2023-01-04T03:08:52.743Z,22.90
2023-01-04T03:12:25.650Z,32.33
2023-01-04T03:15:33.209Z,22.50
2023-01-04T03:18:42.602Z,29.02
2023-01-04T03:21:47.893Z,29.50
2023-01-04T03:25:13.272Z,32.65
2023-01-04T03:28:39.848Z,32.20
2023-01-04T03:32:11.391Z,29.42
2023-01-04T03:35:28.050Z,30.67
2023-01-04T03:39:03.122Z,29.15
2023-01-04T03:42:51.286Z,28.75
2023-01-04T03:46:40.297Z,28.58
2023-01-04T03:49:49.739Z,29.52
2023-01-04T03:52:56.545Z,26.42
2023-01-04T03:56:01.831Z,28.20
2023-01-04T03:59:06.853Z,28.15
2023-01-04T04:02:14.114Z,33.33
2023-01-04T04:05:41.546Z,29.52
2023-01-04T04:08:46.390Z,29.92
2023-01-04T04:11:51.199Z,28.58
2023-01-04T04:14:56.020Z,27.25
2023-01-04T04:18:00.792Z,29.45
2023-01-04T04:21:05.896Z,32.08
2023-01-04T04:24:19.247Z,27.45
2023-01-04T04:27:23.797Z,29.63
2023-01-04T04:30:28.621Z,30.13
2023-01-04T04:33:33.426Z,23.92
2023-01-04T04:36:38.365Z,26.85
2023-01-04T04:39:43.409Z,28.15
2023-01-04T04:42:48.290Z,29.27
2023-01-04T04:45:53.220Z,27.15
2023-01-04T04:48:58.110Z,21.98
2023-01-04T04:52:03.076Z,25.75
2023-01-04T04:55:08.333Z,32.20
2023-01-04T04:58:13.469Z,26.17
2023-01-04T05:01:19.528Z,28.60
2023-01-04T05:04:24.411Z,28.90
2023-01-04T05:07:29.289Z,29.35
2023-01-04T05:10:34.046Z,25.45
2023-01-04T05:13:39.100Z,26.52
2023-01-04T05:16:45.376Z,27.30
2023-01-04T05:19:50.378Z,28.05
2023-01-04T05:22:55.408Z,25.80
2023-01-04T05:26:01.585Z,28.15
2023-01-04T05:29:06.406Z,30.95
2023-01-04T05:32:11.363Z,22.48
2023-01-04T05:35:16.431Z,25.48
2023-01-04T05:38:22.070Z,27.25
2023-01-04T05:41:45.281Z,26.55
2023-01-04T05:44:50.214Z,24.38
2023-01-04T05:47:55.234Z,25.40
2023-01-04T05:51:00.226Z,21.67
2023-01-04T05:54:04.806Z,20.50
2023-01-04T05:57:10.277Z,19.92
2023-01-04T06:00:15.333Z,21.58
2023-01-04T06:03:20.716Z,19.58
2023-01-04T06:06:25.977Z,22.73
2023-01-04T06:09:30.980Z,20.33
2023-01-04T06:12:35.782Z,26.85
2023-01-04T06:15:43.207Z,27.25
2023-01-04T06:18:48.565Z,29.17
2023-01-04T06:21:54.313Z,29.20
2023-01-04T06:24:59.544Z,32.33
2023-01-04T06:28:04.713Z,27.10
2023-01-04T06:31:11.503Z,22.08
2023-01-04T06:34:16.437Z,24.70
2023-01-04T06:37:21.397Z,22.08
2023-01-04T06:40:26.271Z,27.65
2023-01-04T06:43:31.191Z,22.63
2023-01-04T06:46:36.197Z,19.10
2023-01-04T06:49:41.051Z,17.77
2023-01-04T06:52:46.060Z,16.83
2023-01-04T06:55:50.819Z,18.02
2023-01-04T06:58:55.440Z,18.02
2023-01-04T07:02:00.328Z,20.20
2023-01-04T07:05:05.658Z,17.55
2023-01-04T07:08:11.131Z,15.23
2023-01-04T07:11:15.807Z,20.33
2023-01-04T07:14:20.613Z,14.60
2023-01-04T07:17:29.833Z,17.17
2023-01-04T07:20:35.155Z,13.23
2023-01-04T07:23:40.391Z,13.25
2023-01-04T07:26:45.408Z,12.63
2023-01-04T07:29:50.587Z,14.10
2023-01-04T07:32:55.987Z,13.48
2023-01-04T07:36:05.766Z,14.00
2023-01-04T07:39:12.472Z,15.65
2023-01-04T07:42:19.061Z,12.15
2023-01-04T07:45:24.018Z,12.30
2023-01-04T07:48:29.683Z,15.82
2023-01-04T07:51:34.765Z,13.63
2023-01-04T07:54:39.518Z,10.30
2023-01-04T07:57:44.228Z,12.85
2023-01-04T08:00:49.261Z,12.75
2023-01-04T08:03:54.008Z,10.32
2023-01-04T08:06:58.802Z,12.20
2023-01-04T08:10:03.908Z,12.30
2023-01-04T08:13:09.016Z,11.52
2023-01-04T08:16:22.441Z,14.30
2023-01-04T08:19:27.222Z,11.27
2023-01-04T08:22:32.374Z,10.60
2023-01-04T08:25:37.282Z,12.52
2023-01-04T08:28:42.743Z,13.38
2023-01-04T08:31:48.376Z,8.40
2023-01-04T08:34:54.284Z,9.13
2023-01-04T08:38:20.152Z,13.55
2023-01-04T08:41:56.157Z,10.45
2023-01-04T08:44:52.849Z,8.05
2023-01-04T08:48:00.460Z,11.55
2023-01-04T08:51:11.674Z,14.65
2023-01-04T08:54:17.382Z,18.15
2023-01-04T08:57:22.122Z,14.30
2023-01-04T09:00:27.607Z,14.05
2023-01-04T09:03:33.024Z,13.30
2023-01-04T09:06:38.756Z,18.48
2023-01-04T09:09:44.123Z,15.43
2023-01-04T09:12:49.264Z,14.18
2023-01-04T09:15:54.237Z,14.40
2023-01-04T09:18:58.948Z,11.90
2023-01-04T09:22:03.864Z,13.98
2023-01-04T09:25:09.399Z,12.68
2023-01-04T09:28:15.013Z,12.20
2023-01-04T09:31:25.494Z,11.95
2023-01-04T09:34:30.381Z,15.82
2023-01-04T09:37:35.295Z,14.95
2023-01-04T09:41:20.961Z,13.15
2023-01-04T09:48:18.879Z,12.23
2023-01-04T09:51:33.976Z,13.10
2023-01-04T09:54:46.556Z,11.93
2023-01-04T09:57:56.844Z,13.68
2023-01-04T10:01:06.338Z,14.32
2023-01-04T10:04:42.072Z,12.90
2023-01-04T10:07:47.446Z,11.63
2023-01-04T10:11:23.209Z,11.55
2023-01-04T10:14:47.138Z,11.55
2023-01-04T10:21:53.305Z,11.65
2023-01-04T10:25:25.204Z,12.63
2023-01-04T10:28:46.287Z,19.23
2023-01-04T10:31:58.431Z,11.10
2023-01-04T10:35:24.493Z,10.73
2023-01-04T10:38:35.648Z,8.00
2023-01-04T10:41:50.963Z,9.02
2023-01-04T10:45:19.749Z,8.52
2023-01-04T10:48:40.119Z,11.63
2023-01-04T10:51:58.721Z,11.52
2023-01-04T10:55:17.122Z,23.85
2023-01-04T10:59:00.211Z,12.10
2023-01-04T11:02:37.455Z,14.13
2023-01-04T11:06:10.621Z,9.63
2023-01-04T11:09:25.087Z,11.63
2023-01-04T11:12:31.067Z,9.77
2023-01-04T11:15:36.041Z,11.00
2023-01-04T11:18:41.339Z,8.70
2023-01-04T11:21:51.060Z,7.93
2023-01-04T11:28:55.072Z,8.45
2023-01-04T11:32:06.948Z,8.32
2023-01-04T11:35:11.998Z,7.03
2023-01-04T11:38:35.036Z,7.43
2023-01-04T11:41:39.743Z,5.68
2023-01-04T11:44:58.752Z,10.82
2023-01-04T11:48:12.339Z,5.30
2023-01-04T11:51:28.759Z,6.03
2023-01-04T11:54:34.279Z,7.63
2023-01-04T11:57:39.361Z,7.53
2023-01-04T12:00:55.358Z,8.63
2023-01-04T12:04:00.308Z,5.35
2023-01-04T12:07:35.305Z,6.18
2023-01-04T12:10:40.301Z,9.05
2023-01-04T12:13:45.673Z,6.63
2023-01-04T12:17:02.503Z,5.45
2023-01-04T12:20:19.146Z,6.78
2023-01-04T12:23:24.919Z,7.72
2023-01-04T12:26:30.343Z,7.13
2023-01-04T12:29:53.616Z,7.00
2023-01-04T12:32:58.692Z,10.38
2023-01-04T12:36:14.279Z,12.23
2023-01-04T12:39:28.996Z,14.63
2023-01-04T12:42:33.983Z,9.02
2023-01-04T12:45:39.150Z,8.88
2023-01-04T12:49:02.687Z,11.00
2023-01-04T12:55:43.874Z,5.05
2023-01-04T12:59:26.997Z,7.25
2023-01-04T13:02:48.217Z,7.32
2023-01-04T13:06:03.379Z,7.85
2023-01-04T13:09:24.012Z,7.82
2023-01-04T13:12:54.800Z,7.70
2023-01-04T13:16:11.824Z,6.13
2023-01-04T13:19:25.555Z,7.20
2023-01-04T13:22:30.677Z,6.65
2023-01-04T13:25:36.182Z,10.52
2023-01-04T13:28:41.117Z,7.65
2023-01-04T13:31:53.675Z,3.97
2023-01-04T13:35:14.316Z,5.45
2023-01-04T13:38:19.682Z,7.07
2023-01-04T13:41:24.730Z,10.05
2023-01-04T13:45:35.004Z,6.53
2023-01-04T13:48:42.612Z,5.53
2023-01-04T13:51:47.793Z,6.43
2023-01-04T13:55:20.429Z,7.30
2023-01-04T13:58:31.641Z,16.60
2023-01-04T14:01:41.494Z,27.80
2023-01-04T14:04:48.261Z,20.05
2023-01-04T14:07:53.268Z,19.05
2023-01-04T14:10:58.170Z,13.15
2023-01-04T14:14:04.560Z,13.88
2023-01-04T14:17:12.614Z,9.35
2023-01-04T14:20:20.415Z,6.10
2023-01-04T14:23:35.495Z,6.70
2023-01-04T14:26:43.568Z,5.20
2023-01-04T14:29:48.803Z,6.05
2023-01-04T14:32:57.637Z,7.43
2023-01-04T14:36:15.782Z,6.55
2023-01-04T14:39:26.706Z,6.88
2023-01-04T14:42:31.755Z,7.78
2023-01-04T14:45:36.517Z,10.52
2023-01-04T14:48:41.210Z,6.75
2023-01-04T14:51:56.512Z,5.13
2023-01-04T14:55:04.872Z,10.02
2023-01-04T14:58:09.575Z,10.20
2023-01-04T15:01:14.792Z,8.15
2023-01-04T15:04:19.532Z,6.55
2023-01-04T15:07:36.665Z,6.38
2023-01-04T15:10:41.820Z,5.82
2023-01-04T15:13:47.013Z,8.48
2023-01-04T15:16:51.807Z,6.72
2023-01-04T15:19:56.421Z,12.85
2023-01-04T15:23:01.433Z,18.00
2023-01-04T15:26:08.945Z,12.73
2023-01-04T15:29:14.099Z,8.68
2023-01-04T15:32:19.036Z,8.27
2023-01-04T15:35:24.054Z,21.10
2023-01-04T15:38:28.903Z,15.75
2023-01-04T15:41:52.235Z,21.40
2023-01-04T15:44:56.998Z,14.32
2023-01-04T15:48:07.921Z,14.15
2023-01-04T15:51:12.860Z,13.95
2023-01-04T15:54:17.682Z,11.70
2023-01-04T15:57:22.629Z,17.50
2023-01-04T16:00:27.716Z,15.95
2023-01-04T16:03:35.378Z,9.55
2023-01-04T16:06:40.740Z,10.00
2023-01-04T16:09:46.155Z,6.13
2023-01-04T16:12:56.802Z,5.65
2023-01-04T16:16:02.552Z,8.18
2023-01-04T16:19:08.227Z,16.40
2023-01-04T16:22:13.296Z,16.13
2023-01-04T16:25:17.978Z,14.45
2023-01-04T16:28:22.910Z,19.33
2023-01-04T16:31:36.414Z,32.38
2023-01-04T16:34:41.307Z,12.20
2023-01-04T16:37:47.635Z,12.73
2023-01-04T16:41:03.103Z,8.43
2023-01-04T16:44:08.366Z,10.00
2023-01-04T16:47:13.484Z,12.23
2023-01-04T16:50:18.607Z,10.27
2023-01-04T16:53:23.348Z,12.63
2023-01-04T16:56:28.722Z,11.45
2023-01-04T16:59:33.953Z,10.32
2023-01-04T17:02:38.974Z,10.63
2023-01-04T17:05:43.710Z,8.77
2023-01-04T17:08:50.900Z,10.85
2023-01-04T17:15:43.133Z,10.13
2023-01-04T17:18:51.386Z,9.60
2023-01-04T17:21:56.589Z,7.72
2023-01-04T17:25:01.812Z,7.78
2023-01-04T17:28:06.813Z,9.43
2023-01-04T17:31:24.921Z,6.97
2023-01-04T17:34:29.750Z,7.20
2023-01-04T17:37:34.777Z,8.88
2023-01-04T17:40:39.884Z,9.77
2023-01-04T17:43:46.712Z,23.65
2023-01-04T17:46:51.367Z,6.13
2023-01-04T17:49:56.410Z,14.50
2023-01-04T17:53:01.632Z,7.50
2023-01-04T17:56:15.639Z,8.63
2023-01-04T17:59:20.857Z,9.43
2023-01-04T18:02:25.495Z,19.75
2023-01-04T18:05:39.417Z,9.85
2023-01-04T18:08:56.902Z,13.18
2023-01-04T18:12:01.529Z,28.17
2023-01-04T18:15:07.265Z,14.07
2023-01-04T18:18:12.341Z,19.02
2023-01-04T18:21:30.069Z,9.02
2023-01-04T18:24:38.362Z,7.30
2023-01-04T18:27:43.979Z,7.65
2023-01-04T18:30:48.890Z,9.60
2023-01-04T18:33:56.499Z,9.60
2023-01-04T18:37:01.121Z,7.03
2023-01-04T18:40:06.642Z,8.90
2023-01-04T18:43:11.800Z,9.32
2023-01-04T18:46:17.052Z,7.20
2023-01-04T18:49:22.075Z,8.95
2023-01-04T18:52:27.989Z,7.50
2023-01-04T18:55:32.825Z,8.80
2023-01-04T18:58:37.718Z,8.98
2023-01-04T19:01:43.052Z,11.38
2023-01-04T19:04:48.034Z,9.32
2023-01-04T19:07:54.868Z,10.55
2023-01-04T19:11:00.133Z,7.72
2023-01-04T19:14:05.419Z,13.23
2023-01-04T19:17:11.195Z,9.05
2023-01-04T19:20:16.223Z,8.88
2023-01-04T19:23:21.576Z,10.75
2023-01-04T19:26:26.379Z,8.88
2023-01-04T19:29:31.922Z,8.63
2023-01-04T19:32:36.837Z,7.43
2023-01-04T19:35:46.947Z,9.90
2023-01-04T19:38:54.184Z,9.82
2023-01-04T19:41:59.406Z,6.50
2023-01-04T19:45:04.962Z,9.45
2023-01-04T19:48:09.474Z,10.40
2023-01-04T19:51:16.564Z,10.82
2023-01-04T19:54:25.510Z,11.60
2023-01-04T19:57:31.016Z,8.27
2023-01-04T20:00:35.670Z,9.38
2023-01-04T20:03:42.145Z,16.98
2023-01-04T20:06:47.479Z,16.98
2023-01-04T20:09:53.953Z,16.52
2023-01-04T20:12:59.025Z,15.45
2023-01-04T20:16:04.892Z,23.83
2023-01-04T20:19:09.810Z,18.13
2023-01-04T20:22:14.442Z,11.05
2023-01-04T20:25:19.207Z,14.52
2023-01-04T20:28:25.038Z,10.50
2023-01-04T20:31:31.009Z,26.08
2023-01-04T20:34:36.001Z,7.88
2023-01-04T20:37:40.880Z,7.28
2023-01-04T20:40:45.884Z,7.43
2023-01-04T20:43:51.602Z,9.98
2023-01-04T20:46:56.675Z,10.10
2023-01-04T20:50:01.528Z,14.07
2023-01-04T20:53:06.838Z,4.43
2023-01-04T20:56:22.660Z,6.55
2023-01-04T20:59:27.425Z,7.97
2023-01-04T21:02:37.942Z,10.20
2023-01-04T21:05:45.014Z,11.48
2023-01-04T21:08:52.432Z,14.95
2023-01-04T21:12:00.667Z,8.48
2023-01-04T21:15:08.800Z,36.88
2023-01-04T21:18:13.731Z,16.63
2023-01-04T21:21:18.857Z,12.52
2023-01-04T21:24:24.056Z,23.98
2023-01-04T21:27:29.117Z,15.13
2023-01-04T21:30:34.326Z,12.70
2023-01-04T21:33:39.332Z,13.80
2023-01-04T21:36:44.303Z,14.35
2023-01-04T21:39:49.418Z,14.88
2023-01-04T21:42:54.430Z,12.38
2023-01-04T21:46:14.944Z,30.35
2023-01-04T21:49:20.372Z,15.90
2023-01-04T21:52:25.535Z,4.93
2023-01-04T21:55:34.493Z,7.15
2023-01-04T21:58:40.725Z,8.13
2023-01-04T22:01:45.517Z,9.30
2023-01-04T22:04:50.838Z,8.45
2023-01-04T22:07:55.805Z,10.80
2023-01-04T22:11:00.437Z,10.63
2023-01-04T22:14:05.452Z,7.70
2023-01-04T22:17:10.244Z,4.13
2023-01-04T22:20:14.931Z,7.35
2023-01-04T22:23:19.650Z,3.88
2023-01-04T22:26:24.475Z,3.95
2023-01-04T22:29:29.842Z,3.47
2023-01-04T22:32:34.774Z,3.53
2023-01-04T22:35:40.488Z,10.82
2023-01-04T22:38:46.438Z,2.67
2023-01-04T22:41:51.134Z,3.15
2023-01-04T22:44:55.826Z,5.93
2023-01-04T22:48:00.852Z,5.38
2023-01-04T22:51:17.033Z,8.85
2023-01-04T22:54:21.965Z,4.20
2023-01-04T22:57:26.815Z,18.85
2023-01-04T23:00:31.689Z,4.00
2023-01-04T23:03:39.480Z,3.35
2023-01-04T23:06:45.328Z,5.93
2023-01-04T23:09:50.192Z,2.67
2023-01-04T23:12:55.044Z,2.75
2023-01-04T23:16:05.497Z,9.32
2023-01-04T23:19:12.525Z,4.45
2023-01-04T23:22:17.967Z,1.05
2023-01-04T23:25:23.192Z,5.35
2023-01-04T23:28:28.272Z,6.05
2023-01-04T23:31:34.352Z,5.88
2023-01-04T23:34:39.087Z,3.53
2023-01-04T23:37:43.917Z,6.15
2023-01-04T23:40:48.893Z,6.38
2023-01-04T23:43:53.977Z,5.25
2023-01-04T23:47:02.377Z,7.47
2023-01-04T23:50:07.644Z,2.90
2023-01-04T23:53:12.413Z,12.68
2023-01-04T23:56:17.357Z,1.42
2023-01-04T23:59:23.619Z,12.23
